PWSweather.com
Personal Weather Stations
Station Observations
WATERF01
WaterfordIE

WaterfordIE

Lat: 52.2412507, Lon: -7.1414691

Elevation: 65

Station Type: Davis Vantage Vue

www.waterfordweather.com

High Low Average
Temperature 63.0°F17.2°C 55.3°F12.9°C 59.6°F15.3°C
Dew Point 57.9°F14.4°C 50.8°F10.4°C 55.1°F12.8°C
Winds 16.1 mph 25.9 kmh Calm Calm 9.0 mph SSE14.5 kmh SSE
Wind Gusts 25.3 mph40.7 kmh -- 13.0 mph20.9 kmh
Humidity 90% 78% 85%
Pressure 30.18 in1022.0 mb 30.11 in1019.6 mb -
Precipitation 0.19 in4.8 mm - -
Hour Temp Dew Point Humidity Winds Wind Gusts Pressure Precip Precip Rate Daily Precip Total
12:00 AM 55.9°F13.3°C 51.1°F10.6°C 84% Calm Calm 2.3 mph3.7 kmh 30.18 in1022.0 mb - 0.00 in0.0 mm 0.00 in0.0 mm
12:10 AM 55.9°F13.3°C 51.1°F10.6°C 84% 1.2 mph ESE1.9 kmh ESE 2.3 mph3.7 kmh 30.18 in1022.0 mb - 0.00 in0.0 mm 0.00 in0.0 mm
12:20 AM 55.8°F13.2°C 51.0°F10.6°C 84% Calm Calm -- 30.17 in1021.7 mb - 0.00 in0.0 mm 0.00 in0.0 mm
12:30 AM 55.6°F13.1°C 50.8°F10.4°C 84% 1.2 mph E1.9 kmh E 2.3 mph3.7 kmh 30.17 in1021.7 mb - 0.00 in0.0 mm 0.00 in0.0 mm
12:40 AM 55.5°F13.1°C 51.1°F10.6°C 85% 3.5 mph E5.6 kmh E 5.8 mph9.3 kmh 30.17 in1021.7 mb - 0.00 in0.0 mm 0.00 in0.0 mm
12:50 AM 55.3°F12.9°C 50.9°F10.5°C 85% Calm Calm -- 30.17 in1021.7 mb - 0.00 in0.0 mm 0.00 in0.0 mm
01:00 AM 55.3°F12.9°C 50.9°F10.5°C 85% Calm Calm -- 30.16 in1021.3 mb - 0.00 in0.0 mm 0.00 in0.0 mm
01:10 AM 55.3°F12.9°C 51.2°F10.7°C 86% Calm Calm -- 30.16 in1021.3 mb - 0.00 in0.0 mm 0.00 in0.0 mm
01:20 AM 55.3°F12.9°C 51.2°F10.7°C 86% Calm Calm -- 30.16 in1021.3 mb - 0.00 in0.0 mm 0.00 in0.0 mm
01:30 AM 55.4°F13.0°C 51.3°F10.7°C 86% Calm Calm -- 30.16 in1021.3 mb - 0.00 in0.0 mm 0.00 in0.0 mm
01:40 AM 55.7°F13.2°C 51.3°F10.7°C 85% 1.2 mph E1.9 kmh E 5.8 mph9.3 kmh 30.16 in1021.3 mb - 0.00 in0.0 mm 0.00 in0.0 mm
01:50 AM 55.7°F13.2°C 51.6°F10.9°C 86% 1.2 mph E1.9 kmh E 2.3 mph3.7 kmh 30.16 in1021.3 mb - 0.00 in0.0 mm 0.00 in0.0 mm
02:00 AM 55.8°F13.2°C 51.6°F10.9°C 86% Calm Calm 2.3 mph3.7 kmh 30.16 in1021.3 mb - 0.00 in0.0 mm 0.00 in0.0 mm
02:10 AM 56.0°F13.3°C 51.8°F11.0°C 86% 1.2 mph E1.9 kmh E 2.3 mph3.7 kmh 30.16 in1021.3 mb - 0.00 in0.0 mm 0.00 in0.0 mm
02:20 AM 56.0°F13.3°C 51.9°F11.1°C 86% 3.5 mph SE5.6 kmh SE 4.6 mph7.4 kmh 30.16 in1021.3 mb - 0.00 in0.0 mm 0.00 in0.0 mm
02:30 AM 55.9°F13.3°C 51.8°F11.0°C 86% 3.5 mph SE5.6 kmh SE 5.8 mph9.3 kmh 30.16 in1021.3 mb - 0.00 in0.0 mm 0.00 in0.0 mm
02:40 AM 55.9°F13.3°C 51.8°F11.0°C 86% Calm Calm -- 30.15 in1021.0 mb - 0.00 in0.0 mm 0.00 in0.0 mm
02:50 AM 56.2°F13.4°C 52.1°F11.2°C 86% 3.5 mph S5.6 kmh S 5.8 mph9.3 kmh 30.15 in1021.0 mb - 0.00 in0.0 mm 0.00 in0.0 mm
03:00 AM 56.7°F13.7°C 52.2°F11.2°C 85% 2.3 mph S3.7 kmh S 5.8 mph9.3 kmh 30.15 in1021.0 mb - 0.00 in0.0 mm 0.00 in0.0 mm
03:10 AM 57.0°F13.9°C 52.5°F11.4°C 85% 3.5 mph SSE5.6 kmh SSE 5.8 mph9.3 kmh 30.15 in1021.0 mb - 0.00 in0.0 mm 0.00 in0.0 mm
03:20 AM 57.1°F13.9°C 52.6°F11.4°C 85% 4.6 mph SSE7.4 kmh SSE 5.8 mph9.3 kmh 30.15 in1021.0 mb - 0.00 in0.0 mm 0.00 in0.0 mm
03:30 AM 57.0°F13.9°C 52.5°F11.4°C 85% 4.6 mph SSE7.4 kmh SSE 5.8 mph9.3 kmh 30.15 in1021.0 mb - 0.00 in0.0 mm 0.00 in0.0 mm
03:40 AM 56.8°F13.8°C 52.7°F11.5°C 86% 4.6 mph SE7.4 kmh SE 5.8 mph9.3 kmh 30.15 in1021.0 mb - 0.00 in0.0 mm 0.00 in0.0 mm
03:50 AM 56.7°F13.7°C 52.6°F11.4°C 86% 4.6 mph SE7.4 kmh SE 5.8 mph9.3 kmh 30.14 in1020.7 mb - 0.00 in0.0 mm 0.00 in0.0 mm
04:00 AM 56.8°F13.8°C 52.6°F11.4°C 86% 5.8 mph SE9.3 kmh SE 6.9 mph11.1 kmh 30.14 in1020.7 mb - 0.00 in0.0 mm 0.00 in0.0 mm
04:10 AM 57.0°F13.9°C 52.9°F11.6°C 86% 4.6 mph SSE7.4 kmh SSE 8.1 mph13.0 kmh 30.14 in1020.7 mb - 0.00 in0.0 mm 0.00 in0.0 mm
04:20 AM 57.2°F14.0°C 52.8°F11.6°C 85% 4.6 mph SSE7.4 kmh SSE 8.1 mph13.0 kmh 30.14 in1020.7 mb - 0.00 in0.0 mm 0.00 in0.0 mm
04:30 AM 57.5°F14.2°C 53.0°F11.7°C 85% 5.8 mph SE9.3 kmh SE 8.1 mph13.0 kmh 30.14 in1020.7 mb - 0.00 in0.0 mm 0.00 in0.0 mm
04:40 AM 57.6°F14.2°C 52.8°F11.6°C 84% 5.8 mph SE9.3 kmh SE 6.9 mph11.1 kmh 30.14 in1020.7 mb - 0.00 in0.0 mm 0.00 in0.0 mm
04:50 AM 57.7°F14.3°C 53.2°F11.8°C 85% 5.8 mph SSE9.3 kmh SSE 8.1 mph13.0 kmh 30.14 in1020.7 mb - 0.00 in0.0 mm 0.00 in0.0 mm
05:00 AM 57.9°F14.4°C 53.1°F11.7°C 84% 5.8 mph SSE9.3 kmh SSE 11.5 mph18.5 kmh 30.14 in1020.7 mb - 0.00 in0.0 mm 0.00 in0.0 mm
05:10 AM 58.0°F14.4°C 53.2°F11.8°C 84% 5.8 mph SSE9.3 kmh SSE 8.1 mph13.0 kmh 30.14 in1020.7 mb - 0.00 in0.0 mm 0.00 in0.0 mm
05:20 AM 58.1°F14.5°C 53.3°F11.8°C 84% 6.9 mph SE11.1 kmh SE 11.5 mph18.5 kmh 30.14 in1020.7 mb - 0.00 in0.0 mm 0.00 in0.0 mm
05:30 AM 58.2°F14.6°C 53.7°F12.1°C 85% 6.9 mph SE11.1 kmh SE 8.1 mph13.0 kmh 30.14 in1020.7 mb - 0.00 in0.0 mm 0.00 in0.0 mm
05:40 AM 58.3°F14.6°C 53.8°F12.1°C 85% 5.8 mph SE9.3 kmh SE 11.5 mph18.5 kmh 30.14 in1020.7 mb - 0.00 in0.0 mm 0.00 in0.0 mm
05:50 AM 58.4°F14.7°C 53.9°F12.2°C 85% 8.1 mph SE13.0 kmh SE 11.5 mph18.5 kmh 30.14 in1020.7 mb - 0.00 in0.0 mm 0.00 in0.0 mm
06:00 AM 58.4°F14.7°C 53.6°F12.0°C 84% 8.1 mph SSE13.0 kmh SSE 11.5 mph18.5 kmh 30.14 in1020.7 mb - 0.00 in0.0 mm 0.00 in0.0 mm
06:10 AM 58.5°F14.7°C 53.7°F12.1°C 84% 6.9 mph S11.1 kmh S 11.5 mph18.5 kmh 30.14 in1020.7 mb - 0.00 in0.0 mm 0.00 in0.0 mm
06:20 AM 58.6°F14.8°C 53.8°F12.1°C 84% 6.9 mph SSE11.1 kmh SSE 11.5 mph18.5 kmh 30.14 in1020.7 mb - 0.00 in0.0 mm 0.00 in0.0 mm
06:30 AM 58.7°F14.8°C 53.9°F12.2°C 84% 8.1 mph S13.0 kmh S 11.5 mph18.5 kmh 30.14 in1020.7 mb - 0.00 in0.0 mm 0.00 in0.0 mm
06:40 AM 58.8°F14.9°C 54.0°F12.2°C 84% 6.9 mph SSE11.1 kmh SSE 13.8 mph22.2 kmh 30.14 in1020.7 mb - 0.00 in0.0 mm 0.00 in0.0 mm
06:50 AM 58.9°F14.9°C 54.1°F12.3°C 84% 6.9 mph SSE11.1 kmh SSE 11.5 mph18.5 kmh 30.14 in1020.7 mb - 0.00 in0.0 mm 0.00 in0.0 mm
07:00 AM 59.1°F15.1°C 53.9°F12.2°C 83% 8.1 mph SE13.0 kmh SE 12.7 mph20.4 kmh 30.14 in1020.7 mb - 0.00 in0.0 mm 0.00 in0.0 mm
07:10 AM 59.2°F15.1°C 54.0°F12.2°C 83% 5.8 mph SSE9.3 kmh SSE 9.2 mph14.8 kmh 30.14 in1020.7 mb - 0.00 in0.0 mm 0.00 in0.0 mm
07:20 AM 59.3°F15.2°C 54.1°F12.3°C 83% 10.4 mph SSE16.7 kmh SSE 13.8 mph22.2 kmh 30.14 in1020.7 mb - 0.00 in0.0 mm 0.00 in0.0 mm
07:30 AM 59.4°F15.2°C 54.2°F12.3°C 83% 8.1 mph SSE13.0 kmh SSE 12.7 mph20.4 kmh 30.14 in1020.7 mb - 0.00 in0.0 mm 0.00 in0.0 mm
07:40 AM 59.5°F15.3°C 54.0°F12.2°C 82% 6.9 mph SSE11.1 kmh SSE 9.2 mph14.8 kmh 30.14 in1020.7 mb - 0.00 in0.0 mm 0.00 in0.0 mm
07:50 AM 59.6°F15.3°C 54.1°F12.3°C 82% 10.4 mph SSE16.7 kmh SSE 16.1 mph25.9 kmh 30.14 in1020.7 mb - 0.00 in0.0 mm 0.00 in0.0 mm
08:00 AM 59.8°F15.4°C 54.0°F12.2°C 81% 10.4 mph SSE16.7 kmh SSE 16.1 mph25.9 kmh 30.15 in1021.0 mb - 0.00 in0.0 mm 0.00 in0.0 mm
08:10 AM 59.9°F15.5°C 54.1°F12.3°C 81% 8.1 mph SSE13.0 kmh SSE 13.8 mph22.2 kmh 30.14 in1020.7 mb - 0.00 in0.0 mm 0.00 in0.0 mm
08:20 AM 60.0°F15.6°C 54.5°F12.5°C 82% 10.4 mph S16.7 kmh S 12.7 mph20.4 kmh 30.14 in1020.7 mb - 0.00 in0.0 mm 0.00 in0.0 mm
08:30 AM 60.0°F15.6°C 54.5°F12.5°C 82% 10.4 mph SSE16.7 kmh SSE 16.1 mph25.9 kmh 30.14 in1020.7 mb - 0.00 in0.0 mm 0.00 in0.0 mm
08:40 AM 60.1°F15.6°C 54.6°F12.6°C 82% 10.4 mph SSE16.7 kmh SSE 11.5 mph18.5 kmh 30.14 in1020.7 mb - 0.00 in0.0 mm 0.00 in0.0 mm
08:50 AM 60.2°F15.7°C 54.7°F12.6°C 82% 10.4 mph S16.7 kmh S 16.1 mph25.9 kmh 30.15 in1021.0 mb - 0.00 in0.0 mm 0.00 in0.0 mm
09:00 AM 60.4°F15.8°C 54.9°F12.7°C 82% 10.4 mph S16.7 kmh S 13.8 mph22.2 kmh 30.15 in1021.0 mb - 0.00 in0.0 mm 0.00 in0.0 mm
09:10 AM 60.6°F15.9°C 54.7°F12.6°C 81% 10.4 mph S16.7 kmh S 12.7 mph20.4 kmh 30.15 in1021.0 mb - 0.00 in0.0 mm 0.00 in0.0 mm
09:20 AM 60.7°F15.9°C 54.8°F12.7°C 81% 10.4 mph S16.7 kmh S 16.1 mph25.9 kmh 30.15 in1021.0 mb - 0.00 in0.0 mm 0.00 in0.0 mm
09:30 AM 60.9°F16.1°C 54.7°F12.6°C 80% 10.4 mph S16.7 kmh S 15.0 mph24.1 kmh 30.15 in1021.0 mb - 0.00 in0.0 mm 0.00 in0.0 mm
09:40 AM 61.5°F16.4°C 55.2°F12.9°C 80% 9.2 mph S14.8 kmh S 15.0 mph24.1 kmh 30.15 in1021.0 mb - 0.00 in0.0 mm 0.00 in0.0 mm
09:50 AM 61.8°F16.6°C 54.9°F12.7°C 78% 15.0 mph S24.1 kmh S 21.9 mph35.2 kmh 30.15 in1021.0 mb - 0.00 in0.0 mm 0.00 in0.0 mm
10:00 AM 61.6°F16.4°C 54.7°F12.6°C 78% 10.4 mph S16.7 kmh S 13.8 mph22.2 kmh 30.14 in1020.7 mb - 0.00 in0.0 mm 0.00 in0.0 mm
10:10 AM 61.8°F16.6°C 54.9°F12.7°C 78% 11.5 mph S18.5 kmh S 16.1 mph25.9 kmh 30.14 in1020.7 mb - 0.00 in0.0 mm 0.00 in0.0 mm
10:20 AM 61.6°F16.4°C 54.7°F12.6°C 78% 13.8 mph S22.2 kmh S 18.4 mph29.6 kmh 30.14 in1020.7 mb - 0.00 in0.0 mm 0.00 in0.0 mm
10:30 AM 61.6°F16.4°C 55.4°F13.0°C 80% 12.7 mph S20.4 kmh S 19.6 mph31.5 kmh 30.14 in1020.7 mb - 0.00 in0.0 mm 0.00 in0.0 mm
10:40 AM 62.1°F16.7°C 55.2°F12.9°C 78% 13.8 mph S22.2 kmh S 17.3 mph27.8 kmh 30.14 in1020.7 mb - 0.00 in0.0 mm 0.00 in0.0 mm
10:50 AM 62.2°F16.8°C 55.6°F13.1°C 79% 15.0 mph S24.1 kmh S 20.7 mph33.3 kmh 30.14 in1020.7 mb - 0.00 in0.0 mm 0.00 in0.0 mm
11:00 AM 62.3°F16.8°C 55.4°F13.0°C 78% 15.0 mph S24.1 kmh S 19.6 mph31.5 kmh 30.14 in1020.7 mb - 0.00 in0.0 mm 0.00 in0.0 mm
11:10 AM 62.3°F16.8°C 55.7°F13.2°C 79% 13.8 mph S22.2 kmh S 19.6 mph31.5 kmh 30.14 in1020.7 mb - 0.00 in0.0 mm 0.00 in0.0 mm
11:20 AM 62.2°F16.8°C 55.6°F13.1°C 79% 13.8 mph S22.2 kmh S 21.9 mph35.2 kmh 30.14 in1020.7 mb - 0.00 in0.0 mm 0.00 in0.0 mm
11:30 AM 61.9°F16.6°C 55.3°F12.9°C 79% 13.8 mph S22.2 kmh S 19.6 mph31.5 kmh 30.14 in1020.7 mb - 0.00 in0.0 mm 0.00 in0.0 mm
11:40 AM 62.2°F16.8°C 56.0°F13.3°C 80% 13.8 mph SSE22.2 kmh SSE 19.6 mph31.5 kmh 30.14 in1020.7 mb - 0.00 in0.0 mm 0.00 in0.0 mm
11:50 AM 62.6°F17.0°C 56.0°F13.3°C 79% 12.7 mph SSE20.4 kmh SSE 20.7 mph33.3 kmh 30.14 in1020.7 mb - 0.00 in0.0 mm 0.00 in0.0 mm
12:00 PM 62.6°F17.0°C 56.0°F13.3°C 79% 15.0 mph S24.1 kmh S 20.7 mph33.3 kmh 30.14 in1020.7 mb - 0.00 in0.0 mm 0.00 in0.0 mm
12:10 PM 62.6°F17.0°C 56.0°F13.3°C 79% 13.8 mph S22.2 kmh S 16.1 mph25.9 kmh 30.13 in1020.3 mb - 0.00 in0.0 mm 0.00 in0.0 mm
12:20 PM 63.0°F17.2°C 56.4°F13.6°C 79% 16.1 mph SE25.9 kmh SE 23.0 mph37.0 kmh 30.13 in1020.3 mb - 0.00 in0.0 mm 0.00 in0.0 mm
12:30 PM 62.9°F17.2°C 56.6°F13.7°C 80% 13.8 mph S22.2 kmh S 18.4 mph29.6 kmh 30.13 in1020.3 mb - 0.00 in0.0 mm 0.00 in0.0 mm
12:40 PM 62.8°F17.1°C 56.9°F13.8°C 81% 10.4 mph S16.7 kmh S 13.8 mph22.2 kmh 30.13 in1020.3 mb - 0.00 in0.0 mm 0.00 in0.0 mm
12:50 PM 62.9°F17.2°C 56.6°F13.7°C 80% 10.4 mph SSE16.7 kmh SSE 16.1 mph25.9 kmh 30.13 in1020.3 mb - 0.00 in0.0 mm 0.00 in0.0 mm
01:00 PM 62.6°F17.0°C 56.7°F13.7°C 81% 12.7 mph SSE20.4 kmh SSE 19.6 mph31.5 kmh 30.13 in1020.3 mb - 0.00 in0.0 mm 0.00 in0.0 mm
01:10 PM 62.5°F16.9°C 56.6°F13.7°C 81% 12.7 mph S20.4 kmh S 16.1 mph25.9 kmh 30.13 in1020.3 mb - 0.00 in0.0 mm 0.00 in0.0 mm
01:20 PM 62.6°F17.0°C 56.7°F13.7°C 81% 12.7 mph SSE20.4 kmh SSE 20.7 mph33.3 kmh 30.13 in1020.3 mb - 0.00 in0.0 mm 0.00 in0.0 mm
01:30 PM 62.3°F16.8°C 56.8°F13.8°C 82% 15.0 mph S24.1 kmh S 19.6 mph31.5 kmh 30.12 in1020.0 mb - 0.00 in0.0 mm 0.00 in0.0 mm
01:40 PM 62.4°F16.9°C 56.8°F13.8°C 82% 13.8 mph SE22.2 kmh SE 25.3 mph40.7 kmh 30.12 in1020.0 mb - 0.00 in0.0 mm 0.00 in0.0 mm
01:50 PM 62.2°F16.8°C 57.0°F13.9°C 83% 11.5 mph SSE18.5 kmh SSE 19.6 mph31.5 kmh 30.12 in1020.0 mb - 0.00 in0.0 mm 0.00 in0.0 mm
02:00 PM 62.2°F16.8°C 57.3°F14.1°C 84% 8.1 mph S13.0 kmh S 15.0 mph24.1 kmh 30.12 in1020.0 mb - 0.00 in0.0 mm 0.00 in0.0 mm
02:10 PM 62.0°F16.7°C 57.1°F13.9°C 84% 11.5 mph SSE18.5 kmh SSE 20.7 mph33.3 kmh 30.12 in1020.0 mb - 0.00 in0.0 mm 0.00 in0.0 mm
02:20 PM 62.2°F16.8°C 56.9°F13.8°C 83% 12.7 mph S20.4 kmh S 13.8 mph22.2 kmh 30.12 in1020.0 mb - 0.00 in0.0 mm 0.00 in0.0 mm
02:30 PM 62.1°F16.7°C 57.2°F14.0°C 84% 12.7 mph SE20.4 kmh SE 15.0 mph24.1 kmh 30.12 in1020.0 mb - 0.00 in0.0 mm 0.00 in0.0 mm
02:40 PM 62.2°F16.8°C 57.0°F13.9°C 83% 12.7 mph S20.4 kmh S 18.4 mph29.6 kmh 30.12 in1020.0 mb - 0.00 in0.0 mm 0.00 in0.0 mm
02:50 PM 62.2°F16.8°C 57.3°F14.1°C 84% 8.1 mph S13.0 kmh S 13.8 mph22.2 kmh 30.13 in1020.3 mb - 0.00 in0.0 mm 0.00 in0.0 mm
03:00 PM 62.0°F16.7°C 57.1°F13.9°C 84% 12.7 mph S20.4 kmh S 16.1 mph25.9 kmh 30.12 in1020.0 mb - 0.00 in0.0 mm 0.00 in0.0 mm
03:10 PM 61.6°F16.4°C 57.4°F14.1°C 86% 9.2 mph S14.8 kmh S 11.5 mph18.5 kmh 30.12 in1020.0 mb - 0.00 in0.0 mm 0.00 in0.0 mm
03:20 PM 61.4°F16.3°C 57.5°F14.2°C 87% 12.7 mph S20.4 kmh S 19.6 mph31.5 kmh 30.12 in1020.0 mb - 0.00 in0.0 mm 0.00 in0.0 mm
03:30 PM 61.1°F16.2°C 57.2°F14.0°C 87% 10.4 mph SE16.7 kmh SE 13.8 mph22.2 kmh 30.12 in1020.0 mb - 0.00 in0.0 mm 0.00 in0.0 mm
03:40 PM 61.2°F16.2°C 57.3°F14.1°C 87% 12.7 mph SSE20.4 kmh SSE 15.0 mph24.1 kmh 30.12 in1020.0 mb - 0.00 in0.0 mm 0.00 in0.0 mm
03:50 PM 60.8°F16.0°C 56.9°F13.8°C 87% 12.7 mph SSE20.4 kmh SSE 16.1 mph25.9 kmh 30.12 in1020.0 mb - 0.00 in0.0 mm 0.00 in0.0 mm
04:00 PM 60.7°F15.9°C 56.8°F13.8°C 87% 10.4 mph S16.7 kmh S 13.8 mph22.2 kmh 30.11 in1019.6 mb - 0.00 in0.0 mm 0.00 in0.0 mm
04:10 PM 60.7°F15.9°C 56.8°F13.8°C 87% 9.2 mph S14.8 kmh S 15.0 mph24.1 kmh 30.11 in1019.6 mb - 0.00 in0.0 mm 0.00 in0.0 mm
04:20 PM 60.7°F15.9°C 56.8°F13.8°C 87% 11.5 mph SSE18.5 kmh SSE 15.0 mph24.1 kmh 30.11 in1019.6 mb - 0.00 in0.0 mm 0.00 in0.0 mm
04:30 PM 60.6°F15.9°C 56.7°F13.7°C 87% 11.5 mph S18.5 kmh S 16.1 mph25.9 kmh 30.11 in1019.6 mb - 0.00 in0.0 mm 0.00 in0.0 mm
04:40 PM 60.5°F15.8°C 56.6°F13.7°C 87% 9.2 mph SSE14.8 kmh SSE 21.9 mph35.2 kmh 30.11 in1019.6 mb - 0.00 in0.0 mm 0.00 in0.0 mm
04:50 PM 60.5°F15.8°C 56.6°F13.7°C 87% 10.4 mph SSE16.7 kmh SSE 18.4 mph29.6 kmh 30.11 in1019.6 mb - 0.00 in0.0 mm 0.00 in0.0 mm
05:00 PM 60.5°F15.8°C 56.6°F13.7°C 87% 11.5 mph SSE18.5 kmh SSE 16.1 mph25.9 kmh 30.11 in1019.6 mb - 0.00 in0.0 mm 0.00 in0.0 mm
05:10 PM 60.4°F15.8°C 56.5°F13.6°C 87% 10.4 mph SSE16.7 kmh SSE 15.0 mph24.1 kmh 30.11 in1019.6 mb - 0.00 in0.0 mm 0.00 in0.0 mm
05:20 PM 60.3°F15.7°C 56.4°F13.6°C 87% 10.4 mph S16.7 kmh S 12.7 mph20.4 kmh 30.11 in1019.6 mb - 0.00 in0.0 mm 0.00 in0.0 mm
05:30 PM 60.2°F15.7°C 56.3°F13.5°C 87% 9.2 mph SE14.8 kmh SE 15.0 mph24.1 kmh 30.11 in1019.6 mb - 0.00 in0.0 mm 0.00 in0.0 mm
05:40 PM 60.1°F15.6°C 56.5°F13.6°C 88% 9.2 mph S14.8 kmh S 13.8 mph22.2 kmh 30.11 in1019.6 mb - 0.00 in0.0 mm 0.00 in0.0 mm
05:50 PM 60.0°F15.6°C 56.4°F13.6°C 88% 11.5 mph SSE18.5 kmh SSE 15.0 mph24.1 kmh 30.11 in1019.6 mb - 0.00 in0.0 mm 0.00 in0.0 mm
06:00 PM 59.9°F15.5°C 56.4°F13.6°C 88% 9.2 mph SSE14.8 kmh SSE 13.8 mph22.2 kmh 30.11 in1019.6 mb - 0.01 in0.3 mm 0.01 in0.3 mm
06:10 PM 59.9°F15.5°C 56.3°F13.5°C 88% 11.5 mph SSE18.5 kmh SSE 15.0 mph24.1 kmh 30.11 in1019.6 mb - 0.02 in0.5 mm 0.02 in0.5 mm
06:20 PM 59.7°F15.4°C 56.2°F13.4°C 88% 10.4 mph S16.7 kmh S 11.5 mph18.5 kmh 30.11 in1019.6 mb - 0.02 in0.5 mm 0.02 in0.5 mm
06:30 PM 59.6°F15.3°C 56.0°F13.3°C 88% 10.4 mph SSE16.7 kmh SSE 15.0 mph24.1 kmh 30.11 in1019.6 mb - 0.03 in0.8 mm 0.03 in0.8 mm
06:40 PM 59.6°F15.3°C 56.0°F13.3°C 88% 10.4 mph S16.7 kmh S 13.8 mph22.2 kmh 30.11 in1019.6 mb - 0.04 in1.0 mm 0.04 in1.0 mm
06:50 PM 59.6°F15.3°C 56.0°F13.3°C 88% 9.2 mph S14.8 kmh S 13.8 mph22.2 kmh 30.11 in1019.6 mb - 0.05 in1.3 mm 0.05 in1.3 mm
07:00 PM 59.5°F15.3°C 56.3°F13.5°C 89% 9.2 mph SSE14.8 kmh SSE 12.7 mph20.4 kmh 30.11 in1019.6 mb - 0.05 in1.3 mm 0.06 in1.5 mm
07:10 PM 59.5°F15.3°C 56.3°F13.5°C 89% 11.5 mph SSE18.5 kmh SSE 16.1 mph25.9 kmh 30.11 in1019.6 mb - 0.05 in1.3 mm 0.06 in1.5 mm
07:20 PM 59.5°F15.3°C 56.3°F13.5°C 89% 8.1 mph SSE13.0 kmh SSE 11.5 mph18.5 kmh 30.11 in1019.6 mb - 0.05 in1.3 mm 0.07 in1.8 mm
07:30 PM 59.5°F15.3°C 56.3°F13.5°C 89% 9.2 mph SSE14.8 kmh SSE 11.5 mph18.5 kmh 30.11 in1019.6 mb - 0.05 in1.3 mm 0.08 in2.0 mm
07:40 PM 59.4°F15.2°C 56.2°F13.4°C 89% 10.4 mph SSE16.7 kmh SSE 13.8 mph22.2 kmh 30.11 in1019.6 mb - 0.05 in1.3 mm 0.09 in2.3 mm
07:50 PM 59.4°F15.2°C 56.2°F13.4°C 89% 9.2 mph SSE14.8 kmh SSE 20.7 mph33.3 kmh 30.11 in1019.6 mb - 0.05 in1.3 mm 0.09 in2.3 mm
08:00 PM 59.4°F15.2°C 56.2°F13.4°C 89% 9.2 mph SSE14.8 kmh SSE 12.7 mph20.4 kmh 30.12 in1020.0 mb - 0.04 in1.0 mm 0.09 in2.3 mm
08:10 PM 59.4°F15.2°C 56.2°F13.4°C 89% 10.4 mph SE16.7 kmh SE 13.8 mph22.2 kmh 30.12 in1020.0 mb - 0.04 in1.0 mm 0.10 in2.5 mm
08:20 PM 59.5°F15.3°C 56.3°F13.5°C 89% 10.4 mph SSE16.7 kmh SSE 13.8 mph22.2 kmh 30.12 in1020.0 mb - 0.04 in1.0 mm 0.11 in2.8 mm
08:30 PM 59.5°F15.3°C 56.3°F13.5°C 89% 10.4 mph SSE16.7 kmh SSE 12.7 mph20.4 kmh 30.12 in1020.0 mb - 0.04 in1.0 mm 0.12 in3.0 mm
08:40 PM 59.5°F15.3°C 56.3°F13.5°C 89% 6.9 mph SSE11.1 kmh SSE 11.5 mph18.5 kmh 30.12 in1020.0 mb - 0.03 in0.8 mm 0.12 in3.0 mm
08:50 PM 59.5°F15.3°C 56.3°F13.5°C 89% 9.2 mph SE14.8 kmh SE 13.8 mph22.2 kmh 30.12 in1020.0 mb - 0.04 in1.0 mm 0.13 in3.3 mm
09:00 PM 59.6°F15.3°C 56.4°F13.6°C 89% 8.1 mph SE13.0 kmh SE 12.7 mph20.4 kmh 30.12 in1020.0 mb - 0.03 in0.8 mm 0.13 in3.3 mm
09:10 PM 59.7°F15.4°C 56.5°F13.6°C 89% 9.2 mph SE14.8 kmh SE 15.0 mph24.1 kmh 30.12 in1020.0 mb - 0.03 in0.8 mm 0.13 in3.3 mm
09:20 PM 59.7°F15.4°C 56.5°F13.6°C 89% 11.5 mph S18.5 kmh S 13.8 mph22.2 kmh 30.12 in1020.0 mb - 0.02 in0.5 mm 0.13 in3.3 mm
09:30 PM 59.8°F15.4°C 56.6°F13.7°C 89% 8.1 mph SSE13.0 kmh SSE 16.1 mph25.9 kmh 30.12 in1020.0 mb - 0.02 in0.5 mm 0.13 in3.3 mm
09:40 PM 59.9°F15.5°C 56.6°F13.7°C 89% 8.1 mph S13.0 kmh S 13.8 mph22.2 kmh 30.12 in1020.0 mb - 0.02 in0.5 mm 0.14 in3.6 mm
09:50 PM 59.9°F15.5°C 56.7°F13.7°C 89% 8.1 mph S13.0 kmh S 13.8 mph22.2 kmh 30.12 in1020.0 mb - 0.02 in0.5 mm 0.15 in3.8 mm
10:00 PM 60.0°F15.6°C 56.7°F13.7°C 89% 5.8 mph SSE9.3 kmh SSE 8.1 mph13.0 kmh 30.12 in1020.0 mb - 0.03 in0.8 mm 0.16 in4.1 mm
10:10 PM 60.1°F15.6°C 56.9°F13.8°C 89% 8.1 mph SE13.0 kmh SE 12.7 mph20.4 kmh 30.11 in1019.6 mb - 0.03 in0.8 mm 0.17 in4.3 mm
10:20 PM 60.2°F15.7°C 56.9°F13.8°C 89% 8.1 mph SSE13.0 kmh SSE 11.5 mph18.5 kmh 30.11 in1019.6 mb - 0.04 in1.0 mm 0.17 in4.3 mm
10:30 PM 60.3°F15.7°C 57.0°F13.9°C 89% 9.2 mph SSE14.8 kmh SSE 16.1 mph25.9 kmh 30.11 in1019.6 mb - 0.05 in1.3 mm 0.18 in4.6 mm
10:40 PM 60.4°F15.8°C 57.1°F13.9°C 89% 6.9 mph SSE11.1 kmh SSE 11.5 mph18.5 kmh 30.11 in1019.6 mb - 0.04 in1.0 mm 0.18 in4.6 mm
10:50 PM 60.4°F15.8°C 57.2°F14.0°C 89% 5.8 mph SSE9.3 kmh SSE 8.1 mph13.0 kmh 30.11 in1019.6 mb - 0.04 in1.0 mm 0.19 in4.8 mm
11:00 PM 60.5°F15.8°C 57.2°F14.0°C 89% 6.9 mph S11.1 kmh S 8.1 mph13.0 kmh 30.11 in1019.6 mb - 0.03 in0.8 mm 1.10 in27.9 mm
11:10 PM 60.6°F15.9°C 57.7°F14.3°C 90% 8.1 mph S13.0 kmh S 11.5 mph18.5 kmh 30.11 in1019.6 mb - 0.03 in0.8 mm 0.01 in0.3 mm
11:20 PM 60.7°F15.9°C 57.7°F14.3°C 90% 6.9 mph SSE11.1 kmh SSE 12.7 mph20.4 kmh 30.11 in1019.6 mb - 0.02 in0.5 mm 0.01 in0.3 mm
11:30 PM 60.8°F16.0°C 57.8°F14.3°C 90% 5.8 mph SSE9.3 kmh SSE 9.2 mph14.8 kmh 30.11 in1019.6 mb - 0.02 in0.5 mm 0.01 in0.3 mm
11:40 PM 60.9°F16.1°C 57.9°F14.4°C 90% 6.9 mph S11.1 kmh S 11.5 mph18.5 kmh 30.11 in1019.6 mb - 0.02 in0.5 mm 0.01 in0.3 mm
11:50 PM 60.9°F16.1°C 57.9°F14.4°C 90% 8.1 mph S13.0 kmh S 11.5 mph18.5 kmh 30.11 in1019.6 mb - 0.02 in0.5 mm 0.02 in0.5 mm